Dacula, GA (30019)

10:59 AM EDT on April 28, 2015 (GMT -0400)
Dacula, GA | | Change Station
CLOSE
Current Station
Personal Weather Station
Location: Dacula, GA
Elevation: 1007 ft
Nearby Weather Stations

Elev 1007 ft 33.96 °N, 83.86 °W | Updated 25 seconds ago

Partly Cloudy
Partly Cloudy
62.2 °F
Feels Like 62.2 °F
N
2.2
Wind Variable Wind from South
Gusts 10.7 mph

Today
High -- | Low -- °F
--% Chance of Precip.
Yesterday
High -- | Low -- °F
Precip. -- in
6:49 AM 8:16 PM
Waxing Gibbous, 74% visible
Pressure 30.00 in
Visibility 10.0 miles
Clouds Overcast 5000 ft
Dew Point 42 °F
Humidity 47%
Rainfall 0.00 in
Snow Depth Not available.
UV 2 out of 12
Pollen 9.00 out of 12
Air Quality Not available.
Flu Activity Sporadic
METAR KWDR 281435Z AUTO 11007KT 065V135 10SM OVC050 17/06 A3000 RMK AO1

More Conditions Fewer Conditions

Pressure 30.00 in
Visibility 10.0 miles
Clouds Overcast 5000 ft
Dew Point 42 °F
Humidity 47%
Rainfall 0.00 in
Snow Depth Not available.
UV 2 out of 12
Pollen 9.00 out of 12
Air Quality Not available.
Flu Activity Sporadic
METAR KWDR 281435Z AUTO 11007KT 065V135 10SM OVC050 17/06 A3000 RMK AO1

More Conditions Fewer Conditions

10-Day Weather Forecast

Almanac

Astronomy

Apr. 28, 2015 Rise Set
Actual Time
Civil Twilight
Nautical Twilight
Astronomical Twilight
Moon
Length of Visible Light
Length of Day
Tomorrow will be .
, % of the Moon is Illuminated

Today's Extremes

State Highs State Lows

Community

WunderPhotos

Upload Photos

1,817,654 photos uploaded!

WunderBlogs® & News

Nearby

Air Quality

  Air Quality AQ Index Pollutant
Not available.

Snow Depth

Station Depth Elevation

Earthquake Activity

City Distance Mag. Time & Date
Minimum magnitude displayed is 2.5.

Coastal Water Temperatures

Place Temperature

Stations

Nearby Weather Stations

Station Location Temp. Windchill Dew Point Humidity Wind Precip. Elev Updated Type